Murphysville, Kentucky
Current Conditions -  °F | °C
As of 3:15 PM on Wednesday 26 Nov 2014 (Local Time) from KFGX Reporting Station
Broken Clouds Broken Clouds  
Wind Chill: 36°   Ceiling: 3200
Heat Index: 40°   Visibility: 10mi
Dew Point: 28°   Wind: 7mph
Humidity: 62%   Direction: 290°WNW
Pressure: 30.03"   Gusts: NA
Location:  38.585°N, 83.7789°W
Report Text: KFGX 262015Z AUTO 29006KT 10SM BKN032 05/M02 A3003 RMK AO2 T00471020
Loading
Personal Weather Stations






























Interactive Weather Map New forecast layout! Learn more

10-Day Weather Forecast

Advertisements
Track Severe Weather on mobile